Airfield :
LOGIN :

Register | Disclaimer

   EN    FR    IT 

 










Legend :    VFR   Marginal VFR   IFR   Intensive IFR   Very Intensive IFR
Visi :
Ceiling :
>= 8 km
>= 3000ft
5 to 8 km
1000 to 3000 ft
1500m to 5 km
500 to 1000 ft
800 to 1500m
200 to 500 ft
< 800m
< 200 ft
Symbols :   Thunderstorms  Fog  Heavy snow  Heavy precipitations  Wind > 20 kt
SIGMETs :     Misc.  Thunderstorms  Icing  Turbulence  Mountain Waves  Volcanic Ashes






- Airport Elevation : 27 ft
- IATA code : PMI


LEPA - Palma de Mallorca

CURRENT METAR :
  • 131130Z 05004KT 9999 FEW014 SCT037 14/13 Q1005 NOSIG

EXPIRED METARs :
  • 131100Z VRB01KT 9999 FEW014 SCT030 13/12 Q1005 NOSIG
  • 131030Z 00000KT 9000 -RA FEW014 SCT030 13/11 Q1005 NOSIG
  • 131000Z 00000KT 8000 -RA FEW014 SCT035 12/11 Q1005 NOSIG
  • 130900Z 08003KT 8000 -RA FEW010 SCT027 12/11 Q1005 NOSIG

TAF TAF LEPA
Valid from the 13 at 12:00 until the 14 at 12:00 UTC


131100Z 1312/1412 04006KT 9999 SCT030 TX15/1313Z TN07/1408Z
TEMPO 1312/1314 3000 RA BKN020
TEMPO 1314/1321 34007KT
BECMG 1405/1408 23016KT
TEMPO 1407/1412 24020G30KT
PROB40
TEMPO 1409/1412 7000 SHRA FEW022CB BKN025



MET'MAP, your aeronautical weather chart ! - Copyright ORBIFLY December 2007 - Disclaimer

ORBIFLY MET'MAP TEAM :

Programming & Development : Alexandra Zaïnal
Concept & Development : Baudouin d'Aumeries
Co-Development & Prog : Marc-Olivier Méhu
Technical & hardware support : Manuel Goepfert

Contact : metmap@orbifly.com




SOURCES & CREDITS :

   NOAA